createdAt,value
2022-08-14T00:00:39.913Z,12.13
2022-08-14T00:34:36.555Z,11.06
2022-08-14T00:37:25.954Z,10.44
2022-08-14T00:53:45.614Z,11.56
2022-08-14T00:55:03.916Z,11.00
2022-08-14T00:56:01.855Z,11.38
2022-08-14T00:57:10.355Z,9.25
2022-08-14T00:58:27.926Z,11.06
2022-08-14T00:59:32.806Z,11.69
2022-08-14T01:00:50.860Z,13.00
2022-08-14T01:03:52.886Z,12.25
2022-08-14T01:07:57.114Z,10.69
2022-08-14T01:21:07.456Z,10.81
2022-08-14T01:22:13.241Z,12.63
2022-08-14T01:23:21.722Z,13.13
2022-08-14T01:24:34.172Z,11.81
2022-08-14T01:25:37.116Z,11.63
2022-08-14T01:26:50.693Z,9.75
2022-08-14T01:27:57.065Z,10.69
2022-08-14T01:28:59.308Z,10.63
2022-08-14T01:30:04.723Z,4.62
2022-08-14T01:31:12.063Z,9.75
2022-08-14T01:32:22.907Z,10.44
2022-08-14T01:33:59.307Z,6.94
2022-08-14T01:35:18.510Z,10.31
2022-08-14T01:36:04.560Z,9.94
2022-08-14T01:37:28.571Z,10.56
2022-08-14T01:38:32.537Z,11.12
2022-08-14T01:39:42.155Z,9.56
2022-08-14T01:42:36.264Z,10.25
2022-08-14T01:44:08.234Z,9.94
2022-08-14T01:45:41.591Z,10.75
2022-08-14T01:50:55.633Z,10.31
2022-08-14T02:10:47.768Z,9.75
2022-08-14T02:11:54.427Z,12.25
2022-08-14T02:12:59.424Z,9.19
2022-08-14T02:14:07.903Z,10.06
2022-08-14T02:15:12.269Z,11.00
2022-08-14T02:16:23.481Z,9.25
2022-08-14T02:17:28.980Z,10.69
2022-08-14T02:18:34.889Z,12.75
2022-08-14T02:19:38.979Z,9.50
2022-08-14T02:20:43.108Z,11.75
2022-08-14T02:21:50.700Z,11.12
2022-08-14T02:22:55.231Z,9.56
2022-08-14T02:24:01.603Z,10.31
2022-08-14T02:25:06.230Z,6.87
2022-08-14T02:26:29.345Z,10.06
2022-08-14T02:30:17.040Z,10.25
2022-08-14T02:31:43.211Z,10.31
2022-08-14T02:57:15.378Z,12.50
2022-08-14T02:58:03.166Z,10.31
2022-08-14T03:28:33.263Z,11.00
2022-08-14T03:29:18.975Z,11.94
2022-08-14T03:30:39.554Z,11.31
2022-08-14T03:33:02.922Z,10.31
2022-08-14T03:34:10.116Z,11.69
2022-08-14T03:35:15.888Z,10.88
2022-08-14T03:37:38.907Z,11.25
2022-08-14T03:39:08.445Z,11.44
2022-08-14T03:39:14.262Z,9.44
2022-08-14T03:53:02.844Z,8.69
2022-08-14T03:54:08.964Z,11.75
2022-08-14T03:55:16.323Z,10.25
2022-08-14T03:57:42.566Z,12.25
2022-08-14T03:58:49.608Z,9.56
2022-08-14T03:59:54.535Z,9.88
2022-08-14T04:00:59.090Z,11.69
2022-08-14T04:02:09.589Z,8.19
2022-08-14T04:03:19.570Z,11.00
2022-08-14T04:04:21.113Z,7.06
2022-08-14T04:05:25.678Z,11.44
2022-08-14T04:08:29.159Z,9.63
2022-08-14T04:11:08.061Z,6.50
2022-08-14T04:12:13.517Z,12.37
2022-08-14T04:13:18.689Z,10.81
2022-08-14T04:14:23.005Z,10.88
2022-08-14T04:15:27.721Z,7.94
2022-08-14T04:16:32.447Z,10.56
2022-08-14T04:17:38.335Z,8.56
2022-08-14T04:18:44.853Z,7.56
2022-08-14T04:19:51.202Z,9.63
2022-08-14T04:20:55.889Z,11.00
2022-08-14T04:22:04.142Z,10.13
2022-08-14T04:24:38.552Z,10.19
2022-08-14T04:25:53.155Z,12.13
2022-08-14T04:29:05.362Z,10.13
2022-08-14T04:29:39.271Z,10.69
2022-08-14T04:31:24.724Z,10.25
2022-08-14T04:33:01.722Z,10.44
2022-08-14T04:34:24.183Z,10.25
2022-08-14T04:40:12.276Z,9.06
2022-08-14T04:41:15.495Z,11.06
2022-08-14T04:42:19.950Z,9.19
2022-08-14T04:44:51.457Z,9.88
2022-08-14T04:46:57.064Z,8.13
2022-08-14T04:50:43.821Z,10.44
2022-08-14T04:51:28.134Z,10.81
2022-08-14T04:55:46.548Z,11.50
2022-08-14T05:10:42.246Z,12.00
2022-08-14T05:11:41.799Z,12.63
2022-08-14T05:13:12.497Z,15.81
2022-08-14T05:15:04.443Z,37.38
2022-08-14T05:15:22.755Z,63.73
2022-08-14T05:16:27.695Z,71.50
2022-08-14T05:17:44.085Z,55.38
2022-08-14T05:19:19.099Z,48.56
2022-08-14T05:21:55.270Z,55.88
2022-08-14T05:21:56.100Z,50.25
2022-08-14T05:22:15.805Z,30.50
2022-08-14T05:23:22.351Z,54.75
2022-08-14T05:24:33.353Z,42.81
2022-08-14T05:25:35.895Z,40.67
2022-08-14T05:26:43.367Z,62.67
2022-08-14T05:28:22.208Z,53.80
2022-08-14T05:42:34.525Z,90.80
2022-08-14T05:44:04.800Z,89.81
2022-08-14T05:46:28.470Z,64.33
2022-08-14T05:46:57.675Z,81.00
2022-08-14T05:47:39.195Z,61.40
2022-08-14T05:48:43.281Z,70.33
2022-08-14T05:49:47.520Z,69.12
2022-08-14T05:50:52.467Z,62.93
2022-08-14T05:51:57.401Z,65.06
2022-08-14T05:53:03.086Z,73.07
2022-08-14T05:54:12.714Z,91.00
2022-08-14T05:55:13.750Z,81.33
2022-08-14T05:56:18.500Z,84.37
2022-08-14T05:57:22.489Z,81.00
2022-08-14T05:58:40.815Z,100.87
2022-08-14T05:59:39.301Z,89.00
2022-08-14T06:00:42.711Z,96.81
2022-08-14T06:01:46.842Z,73.67
2022-08-14T06:02:52.693Z,88.50
2022-08-14T06:03:59.083Z,94.07
2022-08-14T06:05:03.231Z,79.81
2022-08-14T06:06:09.030Z,97.06
2022-08-14T06:07:14.632Z,89.25
2022-08-14T06:08:35.547Z,101.25
2022-08-14T06:22:45.910Z,96.25
2022-08-14T06:23:52.058Z,91.47
2022-08-14T06:24:56.089Z,92.88
2022-08-14T06:27:44.300Z,93.80
2022-08-14T06:31:34.405Z,75.80
2022-08-14T06:32:00.647Z,70.37
2022-08-14T06:33:19.211Z,74.44
2022-08-14T06:35:04.595Z,79.40
2022-08-14T06:35:26.898Z,75.87
2022-08-14T06:36:31.706Z,86.94
2022-08-14T06:37:47.806Z,94.00
2022-08-14T06:39:36.561Z,82.60
2022-08-14T06:40:03.705Z,93.00
2022-08-14T06:41:58.623Z,89.81
2022-08-14T06:42:32.733Z,86.25
2022-08-14T06:43:30.181Z,88.31
2022-08-14T06:44:39.012Z,98.69
2022-08-14T06:45:54.560Z,92.07
2022-08-14T06:46:54.936Z,92.00
2022-08-14T06:48:05.962Z,95.12
2022-08-14T06:49:06.574Z,93.19
2022-08-14T06:50:16.021Z,84.93
2022-08-14T06:51:21.379Z,88.62
2022-08-14T06:52:33.754Z,95.62
2022-08-14T06:53:33.797Z,94.44
2022-08-14T06:54:39.438Z,87.13
2022-08-14T06:55:58.341Z,73.80
2022-08-14T06:56:57.169Z,75.69
2022-08-14T06:58:03.313Z,58.40
2022-08-14T06:59:07.425Z,57.31
2022-08-14T07:00:22.455Z,42.69
2022-08-14T07:01:27.740Z,41.37
2022-08-14T07:02:29.025Z,36.67
2022-08-14T07:03:34.331Z,40.40
2022-08-14T07:04:48.788Z,35.63
2022-08-14T07:06:01.901Z,22.13
2022-08-14T07:06:59.499Z,23.19
2022-08-14T07:08:02.425Z,30.44
2022-08-14T07:09:06.552Z,29.00
2022-08-14T07:10:13.411Z,26.44
2022-08-14T07:11:17.823Z,21.07
2022-08-14T07:12:54.223Z,15.56
2022-08-14T07:13:30.561Z,15.13
2022-08-14T07:14:34.943Z,13.81
2022-08-14T07:15:39.891Z,12.56
2022-08-14T07:16:47.808Z,10.63
2022-08-14T07:17:52.538Z,12.19
2022-08-14T07:18:58.232Z,17.75
2022-08-14T07:20:04.489Z,24.31
2022-08-14T07:21:12.751Z,27.13
2022-08-14T07:22:20.561Z,17.37
2022-08-14T07:23:25.034Z,27.47
2022-08-14T07:24:31.512Z,30.37
2022-08-14T07:25:39.463Z,28.93
2022-08-14T07:26:58.828Z,16.75
2022-08-14T07:30:34.269Z,57.27
2022-08-14T07:31:21.103Z,24.12
2022-08-14T07:32:34.177Z,19.94
2022-08-14T07:33:37.074Z,20.56
2022-08-14T07:34:42.668Z,25.56
2022-08-14T07:35:57.603Z,20.12
2022-08-14T07:37:00.815Z,17.69
2022-08-14T07:38:02.141Z,19.62
2022-08-14T07:39:12.539Z,18.75
2022-08-14T07:40:13.952Z,16.75
2022-08-14T07:41:19.767Z,18.94
2022-08-14T07:42:23.843Z,19.06
2022-08-14T07:43:27.980Z,20.25
2022-08-14T07:44:45.740Z,22.81
2022-08-14T07:45:38.287Z,22.31
2022-08-14T07:46:42.381Z,19.12
2022-08-14T07:47:46.511Z,18.06
2022-08-14T07:48:51.070Z,26.06
2022-08-14T07:50:05.607Z,20.56
2022-08-14T07:51:11.471Z,15.94
2022-08-14T07:52:15.552Z,15.88
2022-08-14T07:53:34.196Z,17.12
2022-08-14T07:54:36.240Z,18.62
2022-08-14T07:55:38.119Z,20.31
2022-08-14T07:56:48.946Z,20.44
2022-08-14T07:57:52.502Z,20.00
2022-08-14T07:58:58.565Z,20.12
2022-08-14T08:00:05.929Z,24.87
2022-08-14T08:01:14.100Z,26.31
2022-08-14T08:02:28.986Z,19.00
2022-08-14T08:03:41.460Z,19.31
2022-08-14T08:04:44.847Z,24.87
2022-08-14T08:05:52.159Z,29.00
2022-08-14T08:07:02.352Z,23.12
2022-08-14T08:08:08.283Z,25.81
2022-08-14T08:09:21.120Z,20.50
2022-08-14T08:10:46.261Z,24.63
2022-08-14T08:11:54.238Z,25.87
2022-08-14T08:13:22.220Z,18.25
2022-08-14T08:14:20.348Z,17.19
2022-08-14T08:15:26.755Z,21.87
2022-08-14T08:16:51.543Z,23.44
2022-08-14T08:19:14.367Z,21.31
2022-08-14T08:20:31.029Z,24.12
2022-08-14T08:21:13.488Z,23.62
2022-08-14T08:21:27.011Z,22.06
2022-08-14T08:22:32.447Z,27.37
2022-08-14T08:23:40.558Z,33.88
2022-08-14T08:24:40.868Z,32.81
2022-08-14T08:25:48.400Z,30.88
2022-08-14T08:26:53.304Z,31.81
2022-08-14T08:28:00.394Z,27.50
2022-08-14T08:29:08.577Z,30.00
2022-08-14T08:30:15.280Z,26.75
2022-08-14T08:31:20.298Z,30.62
2022-08-14T08:32:29.664Z,30.06
2022-08-14T08:33:37.124Z,33.31
2022-08-14T08:35:00.790Z,35.63
2022-08-14T08:36:18.832Z,27.20
2022-08-14T08:40:06.838Z,38.88
2022-08-14T08:44:43.873Z,29.56
2022-08-14T08:45:29.694Z,30.19
2022-08-14T08:46:45.828Z,29.69
2022-08-14T08:47:53.711Z,27.67
2022-08-14T08:50:02.473Z,27.25
2022-08-14T08:51:14.456Z,27.62
2022-08-14T08:52:30.967Z,25.31
2022-08-14T08:53:50.398Z,23.87
2022-08-14T09:00:42.954Z,14.87
2022-08-14T09:01:56.472Z,15.06
2022-08-14T09:03:10.281Z,17.75
2022-08-14T09:04:19.879Z,19.31
2022-08-14T09:07:00.070Z,12.44
2022-08-14T09:07:00.243Z,20.50
2022-08-14T09:07:00.686Z,17.81
2022-08-14T09:07:49.652Z,22.81
2022-08-14T09:10:25.989Z,19.94
2022-08-14T09:11:38.508Z,27.13
2022-08-14T09:12:51.577Z,29.63
2022-08-14T09:13:56.581Z,25.62
2022-08-14T09:15:11.510Z,25.25
2022-08-14T09:16:19.176Z,25.19
2022-08-14T09:17:26.073Z,28.60
2022-08-14T09:18:28.451Z,22.00
2022-08-14T09:19:34.022Z,21.69
2022-08-14T09:20:49.562Z,20.12
2022-08-14T09:21:48.714Z,21.94
2022-08-14T09:23:01.952Z,16.44
2022-08-14T09:24:28.369Z,19.81
2022-08-14T09:25:15.133Z,13.25
2022-08-14T09:26:22.487Z,10.88
2022-08-14T09:27:28.277Z,11.56
2022-08-14T09:28:32.643Z,14.06
2022-08-14T09:29:38.309Z,12.13
2022-08-14T09:30:45.668Z,7.31
2022-08-14T09:31:54.596Z,19.50
2022-08-14T09:33:22.612Z,21.56
2022-08-14T09:34:38.629Z,19.06
2022-08-14T09:36:02.528Z,11.44
2022-08-14T09:37:27.215Z,15.69
2022-08-14T09:38:48.254Z,15.19
2022-08-14T09:40:20.558Z,14.00
2022-08-14T09:42:21.890Z,13.25
2022-08-14T09:42:57.595Z,10.44
2022-08-14T09:44:22.449Z,13.38
2022-08-14T09:45:39.958Z,10.25
2022-08-14T09:46:42.893Z,11.88
2022-08-14T09:48:08.053Z,10.50
2022-08-14T09:49:12.136Z,9.31
2022-08-14T10:04:15.031Z,20.88
2022-08-14T10:05:13.143Z,14.94
2022-08-14T10:06:23.122Z,15.44
2022-08-14T10:07:34.057Z,10.00
2022-08-14T10:09:21.828Z,13.44
2022-08-14T10:10:23.438Z,12.81
2022-08-14T10:11:35.119Z,11.63
2022-08-14T10:12:45.193Z,10.44
2022-08-14T10:13:56.035Z,14.19
2022-08-14T10:15:01.037Z,13.19
2022-08-14T10:16:06.792Z,15.75
2022-08-14T10:17:15.499Z,15.13
2022-08-14T10:18:22.453Z,10.44
2022-08-14T10:19:29.214Z,10.94
2022-08-14T10:20:41.066Z,14.69
2022-08-14T10:23:10.955Z,18.19
2022-08-14T10:23:22.232Z,26.94
2022-08-14T10:23:57.906Z,19.12
2022-08-14T10:25:10.985Z,17.12
2022-08-14T10:26:22.950Z,23.25
2022-08-14T10:27:26.539Z,25.06
2022-08-14T10:29:03.757Z,19.44
2022-08-14T10:29:54.072Z,21.75
2022-08-14T10:31:07.364Z,26.31
2022-08-14T10:32:18.099Z,24.94
2022-08-14T10:33:31.254Z,24.00
2022-08-14T10:34:40.964Z,15.25
2022-08-14T10:50:40.201Z,12.88
2022-08-14T10:51:46.162Z,19.00
2022-08-14T10:53:08.962Z,12.94
2022-08-14T10:54:35.754Z,16.87
2022-08-14T10:58:19.600Z,16.62
2022-08-14T10:59:30.935Z,20.31
2022-08-14T11:00:49.683Z,28.44
2022-08-14T11:03:57.226Z,14.31
2022-08-14T11:04:32.453Z,23.69
2022-08-14T11:06:01.222Z,39.94
2022-08-14T11:07:09.117Z,18.50
2022-08-14T11:09:35.453Z,19.87
2022-08-14T11:10:54.177Z,13.00
2022-08-14T11:12:34.551Z,14.19
2022-08-14T11:13:13.086Z,13.50
2022-08-14T11:14:20.765Z,14.31
2022-08-14T11:21:10.589Z,20.25
2022-08-14T11:22:52.105Z,18.50
2022-08-14T11:23:41.112Z,13.81
2022-08-14T11:24:50.972Z,19.50
2022-08-14T11:25:53.179Z,20.25
2022-08-14T11:26:57.003Z,21.69
2022-08-14T11:28:03.595Z,19.00
2022-08-14T11:29:11.151Z,19.25
2022-08-14T11:30:51.188Z,20.44
2022-08-14T11:31:24.862Z,20.75
2022-08-14T11:32:31.024Z,19.31
2022-08-14T11:33:46.196Z,21.81
2022-08-14T11:34:54.257Z,23.12
2022-08-14T11:35:59.921Z,24.00
2022-08-14T11:37:23.557Z,16.00
2022-08-14T11:38:18.754Z,16.62
2022-08-14T11:39:34.508Z,17.56
2022-08-14T11:40:32.858Z,19.37
2022-08-14T11:41:43.111Z,21.25
2022-08-14T11:42:58.520Z,20.19
2022-08-14T11:43:58.055Z,22.13
2022-08-14T11:45:01.908Z,19.62
2022-08-14T11:46:17.731Z,21.75
2022-08-14T11:47:25.101Z,20.37
2022-08-14T11:49:01.570Z,16.06
2022-08-14T11:49:44.233Z,14.94
2022-08-14T11:51:02.918Z,9.88
2022-08-14T11:52:00.348Z,13.44
2022-08-14T11:53:08.929Z,18.69
2022-08-14T11:54:43.497Z,19.87
2022-08-14T11:55:55.862Z,18.19
2022-08-14T11:58:35.173Z,16.50
2022-08-14T11:59:44.300Z,15.88
2022-08-14T12:00:49.521Z,19.50
2022-08-14T12:03:03.135Z,26.20
2022-08-14T12:03:46.462Z,28.12
2022-08-14T12:10:26.605Z,53.00
2022-08-14T12:11:19.641Z,46.19
2022-08-14T12:12:36.234Z,43.27
2022-08-14T12:13:32.693Z,45.56
2022-08-14T12:14:56.086Z,63.69
2022-08-14T12:16:20.612Z,61.27
2022-08-14T12:17:24.196Z,86.80
2022-08-14T12:18:38.729Z,67.19
2022-08-14T12:19:58.229Z,83.87
2022-08-14T12:22:52.317Z,94.13
2022-08-14T12:23:05.393Z,81.00
2022-08-14T12:23:47.822Z,97.12
2022-08-14T12:24:59.848Z,95.94
2022-08-14T12:26:31.929Z,90.38
2022-08-14T12:27:12.951Z,104.69
2022-08-14T12:28:27.060Z,100.81
2022-08-14T12:29:24.660Z,87.25
2022-08-14T12:30:43.452Z,59.13
2022-08-14T12:31:51.570Z,66.53
2022-08-14T12:32:54.529Z,51.53
2022-08-14T12:34:03.356Z,54.87
2022-08-14T12:35:10.695Z,52.62
2022-08-14T12:36:25.918Z,56.87
2022-08-14T12:37:31.556Z,56.06
2022-08-14T12:38:45.065Z,43.19
2022-08-14T12:40:56.086Z,51.44
2022-08-14T12:41:37.735Z,50.40
2022-08-14T12:43:56.265Z,44.87
2022-08-14T12:45:17.377Z,43.13
2022-08-14T12:46:22.456Z,47.94
2022-08-14T12:47:17.426Z,64.94
2022-08-14T12:48:32.235Z,78.94
2022-08-14T12:49:33.465Z,76.37
2022-08-14T12:50:42.296Z,85.06
2022-08-14T12:51:58.548Z,96.19
2022-08-14T12:53:14.280Z,100.31
2022-08-14T12:54:19.356Z,91.37
2022-08-14T12:55:23.032Z,94.53
2022-08-14T12:56:33.896Z,107.00
2022-08-14T12:57:42.231Z,97.37
2022-08-14T12:58:52.879Z,99.67
2022-08-14T12:59:59.449Z,103.60
2022-08-14T13:01:17.055Z,95.00
2022-08-14T13:02:26.147Z,110.06
2022-08-14T13:03:30.632Z,87.56
2022-08-14T13:04:37.858Z,73.53
2022-08-14T13:05:45.120Z,83.12
2022-08-14T13:06:51.852Z,89.56
2022-08-14T13:07:59.102Z,87.06
2022-08-14T13:09:11.880Z,95.31
2022-08-14T13:10:47.158Z,90.38
2022-08-14T13:11:26.624Z,92.13
2022-08-14T13:12:43.120Z,90.00
2022-08-14T13:13:44.510Z,94.94
2022-08-14T13:14:51.981Z,96.37
2022-08-14T13:15:57.573Z,95.00
2022-08-14T13:17:01.996Z,86.67
2022-08-14T13:18:09.999Z,78.31
2022-08-14T13:19:16.356Z,82.19
2022-08-14T13:20:26.826Z,83.40
2022-08-14T13:22:05.622Z,82.13
2022-08-14T13:22:44.392Z,82.69
2022-08-14T13:23:48.881Z,87.27
2022-08-14T13:24:55.040Z,89.19
2022-08-14T13:26:00.245Z,73.73
2022-08-14T13:27:05.952Z,71.20
2022-08-14T13:28:12.880Z,68.80
2022-08-14T13:29:21.021Z,71.20
2022-08-14T13:30:27.718Z,80.20
2022-08-14T13:31:35.313Z,89.50
2022-08-14T13:32:59.451Z,83.27
2022-08-14T13:34:08.330Z,80.87
2022-08-14T13:35:26.723Z,71.47
2022-08-14T13:36:54.558Z,81.12
2022-08-14T13:37:37.435Z,79.00
2022-08-14T13:38:45.586Z,78.12
2022-08-14T13:39:56.641Z,78.31
2022-08-14T13:40:59.497Z,74.33
2022-08-14T13:42:08.051Z,63.67
2022-08-14T13:43:14.371Z,63.38
2022-08-14T13:44:24.052Z,86.00
2022-08-14T13:45:33.902Z,84.56
2022-08-14T13:46:33.343Z,67.73
2022-08-14T13:47:41.272Z,83.40
2022-08-14T13:48:45.575Z,90.81
2022-08-14T13:49:57.445Z,80.44
2022-08-14T13:51:01.735Z,91.12
2022-08-14T13:52:48.762Z,89.56
2022-08-14T13:53:16.825Z,84.69
2022-08-14T13:54:23.953Z,62.67
2022-08-14T13:55:32.304Z,84.81
2022-08-14T13:56:39.594Z,81.81
2022-08-14T13:57:49.479Z,79.25
2022-08-14T13:59:01.468Z,80.81
2022-08-14T14:01:15.561Z,78.44
2022-08-14T14:01:21.364Z,63.13
2022-08-14T14:02:31.601Z,66.69
2022-08-14T14:03:38.308Z,66.94
2022-08-14T14:05:01.989Z,59.75
2022-08-14T14:05:58.049Z,57.81
2022-08-14T14:07:08.314Z,62.62
2022-08-14T14:08:46.723Z,56.00
2022-08-14T14:09:51.027Z,56.56
2022-08-14T14:10:49.088Z,54.88
2022-08-14T14:12:05.233Z,52.81
2022-08-14T14:13:21.412Z,49.19
2022-08-14T14:14:44.567Z,47.00
2022-08-14T14:15:33.932Z,60.38
2022-08-14T14:16:33.292Z,57.00
2022-08-14T14:17:54.733Z,63.00
2022-08-14T14:18:54.055Z,80.62
2022-08-14T14:20:59.423Z,74.12
2022-08-14T14:21:20.176Z,77.87
2022-08-14T14:22:35.836Z,66.94
2022-08-14T14:23:37.659Z,65.69
2022-08-14T14:24:44.264Z,71.87
2022-08-14T14:25:57.034Z,58.25
2022-08-14T14:27:00.361Z,61.63
2022-08-14T14:28:06.253Z,72.56
2022-08-14T14:29:13.680Z,72.07
2022-08-14T14:30:52.201Z,71.81
2022-08-14T14:31:35.406Z,71.44
2022-08-14T14:33:01.876Z,78.81
2022-08-14T14:33:51.550Z,77.06
2022-08-14T14:34:57.892Z,82.88
2022-08-14T14:36:05.704Z,93.56
2022-08-14T14:37:12.136Z,61.20
2022-08-14T14:38:17.369Z,84.75
2022-08-14T14:39:25.939Z,97.00
2022-08-14T14:40:53.787Z,96.53
2022-08-14T14:41:43.548Z,105.63
2022-08-14T14:42:57.122Z,92.00
2022-08-14T14:44:17.012Z,83.37
2022-08-14T14:45:24.907Z,97.50
2022-08-14T14:46:36.279Z,91.25
2022-08-14T14:47:38.573Z,86.07
2022-08-14T14:48:53.838Z,97.88
2022-08-14T14:49:55.335Z,92.44
2022-08-14T14:50:58.477Z,99.37
2022-08-14T14:52:04.564Z,96.94
2022-08-14T14:53:13.136Z,89.13
2022-08-14T14:54:18.512Z,88.69
2022-08-14T14:55:25.569Z,107.44
2022-08-14T14:56:50.110Z,98.67
2022-08-14T14:57:37.029Z,93.00
2022-08-14T14:58:46.042Z,92.94
2022-08-14T14:59:52.054Z,95.20
2022-08-14T15:08:55.960Z,93.25
2022-08-14T15:09:58.352Z,87.00
2022-08-14T15:11:02.833Z,91.07
2022-08-14T15:12:27.965Z,88.20
2022-08-14T15:13:24.948Z,90.25
2022-08-14T15:14:56.544Z,98.31
2022-08-14T15:15:37.442Z,92.50
2022-08-14T15:16:41.385Z,94.31
2022-08-14T15:17:45.679Z,72.13
2022-08-14T15:20:30.655Z,73.53
2022-08-14T15:21:33.061Z,82.87
2022-08-14T15:22:43.564Z,82.07
2022-08-14T15:24:20.288Z,73.40
2022-08-14T15:26:03.719Z,71.47
2022-08-14T15:26:10.749Z,70.80
2022-08-14T15:28:38.874Z,77.69
2022-08-14T15:30:02.398Z,82.69
2022-08-14T15:31:08.122Z,69.69
2022-08-14T15:32:13.941Z,83.33
2022-08-14T15:33:22.716Z,66.67
2022-08-14T15:34:43.538Z,62.81
2022-08-14T15:35:34.409Z,67.93
2022-08-14T15:36:42.006Z,72.00
2022-08-14T15:37:45.867Z,70.19
2022-08-14T15:38:54.188Z,65.12
2022-08-14T15:39:58.359Z,86.50
2022-08-14T15:41:08.344Z,73.00
2022-08-14T15:43:08.949Z,63.38
2022-08-14T15:45:01.257Z,87.44
2022-08-14T15:45:29.557Z,98.81
2022-08-14T15:46:07.852Z,86.06
2022-08-14T15:47:16.680Z,91.06
2022-08-14T15:48:23.315Z,87.81
2022-08-14T15:49:34.452Z,96.06
2022-08-14T15:50:36.674Z,99.62
2022-08-14T15:51:44.125Z,91.69
2022-08-14T15:56:42.148Z,93.50
2022-08-14T15:57:32.079Z,139.69
2022-08-14T15:58:37.294Z,139.12
2022-08-14T15:59:43.484Z,131.37
2022-08-14T16:00:50.167Z,130.50
2022-08-14T16:01:55.681Z,113.94
2022-08-14T16:03:01.819Z,132.44
2022-08-14T16:04:07.420Z,133.56
2022-08-14T16:05:11.537Z,123.87
2022-08-14T16:06:20.006Z,123.25
2022-08-14T16:07:27.274Z,131.37
2022-08-14T16:08:37.361Z,138.06
2022-08-14T16:09:37.922Z,137.50
2022-08-14T16:10:45.934Z,135.37
2022-08-14T16:11:53.642Z,136.62
2022-08-14T16:12:58.861Z,139.75
2022-08-14T16:14:09.901Z,112.00
2022-08-14T16:15:14.763Z,117.94
2022-08-14T16:16:47.702Z,103.19
2022-08-14T16:17:43.976Z,61.06
2022-08-14T16:18:45.954Z,74.25
2022-08-14T16:19:56.011Z,60.75
2022-08-14T16:21:02.446Z,64.94
2022-08-14T16:23:10.553Z,52.20
2022-08-14T16:23:19.030Z,41.13
2022-08-14T16:24:28.108Z,31.87
2022-08-14T16:25:36.206Z,28.62
2022-08-14T16:26:39.123Z,27.94
2022-08-14T16:27:45.897Z,25.94
2022-08-14T16:28:52.325Z,23.44
2022-08-14T16:30:05.029Z,31.00
2022-08-14T16:31:09.914Z,26.81
2022-08-14T16:32:32.705Z,7.31
2022-08-14T16:33:57.092Z,13.62
2022-08-14T16:34:44.205Z,9.56
2022-08-14T16:35:42.172Z,12.19
2022-08-14T16:36:41.475Z,6.19
2022-08-14T16:37:47.673Z,4.25
2022-08-14T16:38:55.966Z,2.25
2022-08-14T16:40:04.633Z,1.31
2022-08-14T16:41:10.467Z,2.12
2022-08-14T16:43:03.264Z,12.25
2022-08-14T16:43:21.077Z,0.62
2022-08-14T16:44:33.685Z,3.19
2022-08-14T16:45:43.535Z,12.25
2022-08-14T16:46:43.862Z,11.75
2022-08-14T16:47:50.650Z,11.19
2022-08-14T16:48:57.732Z,12.75
2022-08-14T16:50:04.137Z,13.50
2022-08-14T16:51:06.877Z,16.00
2022-08-14T16:52:26.008Z,17.75
2022-08-14T16:53:23.872Z,23.31
2022-08-14T16:54:34.890Z,28.06
2022-08-14T16:55:53.157Z,28.56
2022-08-14T16:56:40.743Z,22.69
2022-08-14T16:57:58.926Z,20.69
2022-08-14T16:59:16.101Z,16.19
2022-08-14T17:00:32.743Z,12.69
2022-08-14T17:01:40.558Z,14.63
2022-08-14T17:02:44.194Z,17.62
2022-08-14T17:03:54.453Z,15.38
2022-08-14T17:05:16.986Z,16.81
2022-08-14T17:06:42.972Z,13.13
2022-08-14T17:12:34.882Z,21.56
2022-08-14T17:13:59.895Z,11.63
2022-08-14T17:15:01.913Z,13.69
2022-08-14T17:16:11.925Z,13.44
2022-08-14T17:17:19.843Z,16.69
2022-08-14T17:18:41.773Z,15.75
2022-08-14T17:19:45.799Z,16.31
2022-08-14T17:21:02.152Z,15.81
2022-08-14T17:22:06.730Z,15.06
2022-08-14T17:23:10.757Z,13.56
2022-08-14T17:24:51.540Z,15.44
2022-08-14T17:25:23.587Z,20.88
2022-08-14T17:26:47.178Z,18.19
2022-08-14T17:28:52.555Z,19.37
2022-08-14T17:29:23.655Z,22.19
2022-08-14T17:30:37.875Z,15.19
2022-08-14T17:31:58.066Z,13.44
2022-08-14T17:32:56.260Z,14.56
2022-08-14T17:33:53.649Z,12.63
2022-08-14T17:35:01.845Z,13.00
2022-08-14T17:36:20.779Z,14.25
2022-08-14T17:37:26.096Z,13.69
2022-08-14T17:38:33.692Z,13.75
2022-08-14T17:39:40.173Z,18.31
2022-08-14T17:40:43.335Z,19.62
2022-08-14T17:42:01.807Z,26.75
2022-08-14T17:43:01.874Z,26.13
2022-08-14T17:44:33.834Z,29.37
2022-08-14T17:45:41.057Z,18.19
2022-08-14T17:46:43.940Z,17.56
2022-08-14T17:47:49.551Z,16.44
2022-08-14T17:49:13.873Z,13.62
2022-08-14T17:50:58.417Z,14.56
2022-08-14T17:51:13.317Z,14.69
2022-08-14T17:52:36.473Z,12.06
2022-08-14T17:53:24.599Z,12.94
2022-08-14T17:54:35.029Z,14.44
2022-08-14T17:56:00.911Z,13.62
2022-08-14T17:56:42.706Z,14.94
2022-08-14T17:57:48.736Z,14.75
2022-08-14T17:58:55.236Z,11.88
2022-08-14T18:00:01.247Z,13.13
2022-08-14T18:01:08.489Z,14.25
2022-08-14T18:02:16.447Z,14.87
2022-08-14T18:03:50.891Z,13.50
2022-08-14T18:04:33.232Z,13.19
2022-08-14T18:06:07.132Z,13.69
2022-08-14T18:06:58.564Z,16.50
2022-08-14T18:08:32.501Z,15.38
2022-08-14T18:09:00.321Z,15.19
2022-08-14T18:10:51.829Z,16.00
2022-08-14T18:11:15.199Z,15.81
2022-08-14T18:12:31.978Z,16.06
2022-08-14T18:13:50.121Z,13.88
2022-08-14T18:14:48.975Z,15.25
2022-08-14T18:15:44.689Z,15.69
2022-08-14T18:16:53.305Z,16.69
2022-08-14T18:17:58.267Z,14.44
2022-08-14T18:19:04.370Z,14.87
2022-08-14T18:21:24.460Z,14.25
2022-08-14T18:21:39.690Z,13.81
2022-08-14T18:22:32.125Z,14.19
2022-08-14T18:23:41.958Z,10.63
2022-08-14T18:24:57.355Z,14.56
2022-08-14T18:26:06.530Z,16.12
2022-08-14T18:27:02.275Z,15.63
2022-08-14T18:30:31.735Z,16.62
2022-08-14T18:36:47.684Z,17.69
2022-08-14T18:37:18.053Z,15.13
2022-08-14T18:38:26.074Z,15.50
2022-08-14T18:40:01.676Z,15.19
2022-08-14T18:40:44.119Z,13.25
2022-08-14T18:41:50.583Z,17.31
2022-08-14T18:43:02.275Z,16.69
2022-08-14T18:44:05.187Z,16.00
2022-08-14T18:45:15.531Z,17.31
2022-08-14T18:47:00.105Z,14.50
2022-08-14T18:47:24.365Z,15.69
2022-08-14T18:48:50.390Z,15.25
2022-08-14T18:50:30.735Z,18.19
2022-08-14T18:51:11.897Z,14.94
2022-08-14T18:52:18.612Z,20.44
2022-08-14T18:53:25.550Z,20.50
2022-08-14T18:54:35.761Z,16.37
2022-08-14T18:55:53.024Z,16.75
2022-08-14T18:57:03.929Z,14.69
2022-08-14T18:58:26.553Z,15.63
2022-08-14T18:59:35.749Z,15.44
2022-08-14T19:00:54.146Z,17.37
2022-08-14T19:01:51.638Z,15.31
2022-08-14T19:02:56.805Z,15.38
2022-08-14T19:04:02.729Z,16.75
2022-08-14T19:05:09.554Z,10.69
2022-08-14T19:06:16.590Z,17.25
2022-08-14T19:07:20.259Z,15.88
2022-08-14T19:08:26.504Z,15.56
2022-08-14T19:09:58.009Z,17.19
2022-08-14T19:11:05.499Z,15.31
2022-08-14T19:12:15.832Z,16.00
2022-08-14T19:13:48.373Z,14.69
2022-08-14T19:14:47.554Z,15.75
2022-08-14T19:15:56.325Z,11.88
2022-08-14T19:17:02.236Z,15.19
2022-08-14T19:18:28.407Z,14.56
2022-08-14T19:19:35.653Z,16.62
2022-08-14T19:20:52.981Z,16.31
2022-08-14T19:22:00.383Z,16.87
2022-08-14T19:23:07.402Z,17.81
2022-08-14T19:24:30.180Z,13.69
2022-08-14T19:25:56.595Z,15.50
2022-08-14T19:27:23.689Z,16.12
2022-08-14T19:28:31.728Z,14.13
2022-08-14T19:29:39.866Z,53.06
2022-08-14T19:30:42.543Z,19.06
2022-08-14T19:31:55.300Z,16.81
2022-08-14T19:32:55.937Z,8.63
2022-08-14T19:34:06.778Z,14.38
2022-08-14T19:35:19.977Z,15.88
2022-08-14T19:36:29.264Z,14.94
2022-08-14T19:37:52.747Z,17.19
2022-08-14T19:39:01.383Z,16.56
2022-08-14T19:40:15.484Z,15.56
2022-08-14T19:41:18.807Z,13.75
2022-08-14T19:42:28.219Z,16.25
2022-08-14T19:43:56.526Z,16.00
2022-08-14T19:44:38.892Z,14.13
2022-08-14T19:45:44.220Z,15.19
2022-08-14T19:47:01.361Z,14.94
2022-08-14T19:48:02.032Z,16.69
2022-08-14T19:49:06.338Z,15.00
2022-08-14T19:50:38.040Z,15.31
2022-08-14T19:51:18.112Z,15.00
2022-08-14T19:52:30.041Z,13.75
2022-08-14T19:53:36.821Z,12.94
2022-08-14T19:54:41.010Z,12.94
2022-08-14T19:55:46.687Z,14.38
2022-08-14T19:56:50.872Z,14.63
2022-08-14T19:57:58.156Z,14.38
2022-08-14T19:59:05.307Z,15.25
2022-08-14T20:00:29.289Z,14.50
2022-08-14T20:01:37.351Z,15.13
2022-08-14T20:02:37.665Z,14.25
2022-08-14T20:03:59.777Z,14.38
2022-08-14T20:05:04.914Z,14.44
2022-08-14T20:07:16.864Z,13.69
2022-08-14T20:07:58.820Z,12.31